Time;durP1;ratioP1;P1;durP2;ratioP2;P2;SDS_P1;SDS_P2;PMS_P1;PMS_P2;Temp;Humidity;BMP_temperature;BMP_pressure;BME280_temperature;BME280_humidity;BME280_pressure;Samples;Min_cycle;Max_cycle;Signal;HPM_P1;HPM_P2
2021/05/01 05:02:22;;;;;;;9.40;4.50;;;5.70;99.90;;;;;;4995425;23;20231;-71
2021/05/01 05:04:48;;;;;;;8.97;4.57;;;6.30;99.90;;;;;;4972339;28;20261;-78
2021/05/01 05:07:14;;;;;;;7.87;4.60;;;6.80;99.90;;;;;;4969184;28;20210;-78
2021/05/01 05:09:40;;;;;;;8.13;4.10;;;7.20;99.90;;;;;;4956096;28;20232;-77
2021/05/01 05:12:07;;;;;;;7.63;4.07;;;7.80;99.90;;;;;;4955232;29;20216;-78
2021/05/01 05:14:33;;;;;;;7.90;4.57;;;8.30;99.90;;;;;;4954765;28;20208;-78
2021/05/01 05:17:00;;;;;;;8.07;3.90;;;8.80;99.90;;;;;;4950152;28;20634;-78
2021/05/01 05:19:27;;;;;;;4.87;3.30;;;9.20;99.90;;;;;;4946736;28;20691;-73
2021/05/01 05:21:53;;;;;;;6.67;3.60;;;9.70;99.90;;;;;;4954075;28;20213;-74
2021/05/01 05:24:19;;;;;;;7.73;3.63;;;10.30;99.90;;;;;;4955390;29;20212;-79
2021/05/01 05:26:45;;;;;;;6.43;3.87;;;10.70;99.90;;;;;;4952006;29;20215;-79
2021/05/01 05:29:12;;;;;;;7.60;4.17;;;11.30;99.90;;;;;;4952126;29;20224;-78
2021/05/01 05:31:38;;;;;;;5.23;3.60;;;11.70;99.30;;;;;;4951815;28;20300;-78
2021/05/01 05:34:04;;;;;;;5.73;4.10;;;12.20;98.50;;;;;;4954278;29;20212;-79
2021/05/01 05:36:32;;;;;;;9.53;4.73;;;12.60;97.70;;;;;;4952130;29;20207;-79
2021/05/01 05:38:58;;;;;;;10.20;4.50;;;13.10;97.00;;;;;;4953510;28;20231;-77
2021/05/01 05:41:24;;;;;;;8.87;4.87;;;13.50;96.30;;;;;;4953047;29;20282;-78
2021/05/01 05:43:50;;;;;;;7.27;4.30;;;14.10;95.50;;;;;;4951525;28;20217;-76
2021/05/01 05:46:17;;;;;;;9.13;5.03;;;14.60;95.10;;;;;;4953057;29;20204;-79
2021/05/01 05:48:44;;;;;;;9.33;4.97;;;14.90;94.40;;;;;;4955055;28;20275;-77
2021/05/01 05:51:10;;;;;;;10.00;5.53;;;15.30;93.70;;;;;;4950344;29;20242;-74
2021/05/01 05:53:37;;;;;;;9.00;5.00;;;15.70;93.20;;;;;;4952366;28;20227;-71
2021/05/01 05:56:04;;;;;;;11.00;6.03;;;16.10;92.70;;;;;;4953757;29;20212;-80
2021/05/01 05:58:31;;;;;;;8.07;5.30;;;16.40;92.40;;;;;;4951963;28;20587;-79
2021/05/01 06:00:57;;;;;;;9.00;4.47;;;16.70;91.90;;;;;;4947296;28;20246;-79
2021/05/01 06:03:27;;;;;;;6.53;4.57;;;17.00;91.40;;;;;;4952506;29;20220;-80
2021/05/01 06:05:58;;;;;;;7.63;4.27;;;16.80;91.60;;;;;;4951966;28;20200;-76
2021/05/01 06:08:30;;;;;;;7.13;4.10;;;17.20;91.30;;;;;;4950291;28;20251;-79
2021/05/01 06:10:57;;;;;;;5.37;3.80;;;17.50;91.30;;;;;;4954000;28;20251;-76
2021/05/01 06:13:25;;;;;;;6.43;3.80;;;18.00;90.90;;;;;;4953427;29;20273;-78
2021/05/01 06:15:55;;;;;;;6.67;4.53;;;18.50;90.20;;;;;;4952871;28;20308;-77
2021/05/01 06:18:23;;;;;;;6.20;4.27;;;18.70;90.00;;;;;;4952796;28;20228;-78
2021/05/01 06:20:49;;;;;;;5.97;4.28;;;19.00;89.20;;;;;;4950176;29;20239;-80
2021/05/01 06:23:17;;;;;;;7.68;4.50;;;19.50;88.90;;;;;;4950885;28;20218;-79
2021/05/01 06:25:44;;;;;;;6.80;4.35;;;20.00;88.00;;;;;;4952254;29;20666;-77
2021/05/01 06:28:11;;;;;;;5.88;4.28;;;20.40;87.00;;;;;;4952804;28;20215;-80
2021/05/01 06:30:40;;;;;;;9.80;4.60;;;20.90;86.30;;;;;;4951834;28;20212;-79
2021/05/01 06:33:08;;;;;;;5.45;3.65;;;21.30;85.50;;;;;;4953785;29;20208;-81
2021/05/01 06:35:36;;;;;;;4.53;3.08;;;21.50;84.80;;;;;;4953356;28;20837;-78
2021/05/01 06:38:02;;;;;;;6.65;4.10;;;21.50;83.70;;;;;;4954576;28;20208;-80
2021/05/01 06:40:31;;;;;;;5.63;3.67;;;21.20;84.30;;;;;;4956781;29;20364;-77
2021/05/01 06:43:01;;;;;;;7.72;3.88;;;21.10;84.70;;;;;;4954552;28;20318;-76
2021/05/01 06:45:28;;;;;;;3.22;2.60;;;21.20;83.40;;;;;;4954734;28;20240;-79
2021/05/01 06:47:57;;;;;;;6.28;3.80;;;21.50;82.70;;;;;;4954431;29;20686;-73
2021/05/01 06:50:26;;;;;;;6.85;4.10;;;21.40;82.90;;;;;;4955679;28;20228;-79
2021/05/01 06:52:53;;;;;;;6.90;3.67;;;21.80;81.80;;;;;;4955340;29;20208;-77
2021/05/01 06:55:21;;;;;;;6.57;3.38;;;21.50;81.90;;;;;;4955203;29;20204;-79
2021/05/01 06:57:49;;;;;;;6.03;2.60;;;21.50;82.00;;;;;;4955330;28;20215;-79
2021/05/01 07:00:16;;;;;;;6.88;3.20;;;21.20;82.30;;;;;;4954289;28;20298;-76
2021/05/01 07:02:45;;;;;;;5.60;2.60;;;21.30;81.00;;;;;;4954307;29;20219;-79
2021/05/01 07:05:14;;;;;;;7.85;2.97;;;20.90;80.90;;;;;;4954975;29;20223;-74
2021/05/01 07:07:40;;;;;;;3.85;2.30;;;20.80;82.70;;;;;;4955054;29;20208;-78
2021/05/01 07:10:09;;;;;;;2.80;2.03;;;20.90;82.30;;;;;;4954869;28;20234;-72
2021/05/01 07:12:37;;;;;;;4.70;2.85;;;21.10;82.00;;;;;;4954880;29;20208;-72
2021/05/01 07:15:04;;;;;;;4.65;3.20;;;21.40;79.80;;;;;;4955366;29;20208;-75
2021/05/01 07:17:31;;;;;;;5.00;3.75;;;21.60;80.00;;;;;;4954622;28;20544;-73
2021/05/01 07:20:00;;;;;;;6.28;4.00;;;22.10;77.70;;;;;;4954937;28;20243;-75
2021/05/01 07:22:26;;;;;;;5.63;3.72;;;22.20;77.10;;;;;;4955256;28;20685;-73
2021/05/01 07:24:53;;;;;;;7.72;4.60;;;22.30;77.70;;;;;;4959163;29;20715;-72
2021/05/01 07:27:21;;;;;;;5.70;4.30;;;22.30;75.40;;;;;;4958668;29;20220;-73
2021/05/01 07:29:51;;;;;;;6.70;4.05;;;22.40;74.50;;;;;;4958741;28;20232;-75
2021/05/01 07:32:18;;;;;;;7.47;4.28;;;22.10;73.40;;;;;;4958837;29;20212;-75
2021/05/01 07:34:50;;;;;;;6.28;4.40;;;21.80;75.30;;;;;;4958715;29;20681;-74
2021/05/01 07:37:21;;;;;;;9.70;4.43;;;21.50;76.10;;;;;;4958727;29;20238;-75
2021/05/01 07:39:49;;;;;;;8.52;4.10;;;21.70;74.00;;;;;;4958206;28;20643;-74
2021/05/01 07:42:17;;;;;;;7.30;3.38;;;22.00;72.90;;;;;;4958777;29;20212;-72
2021/05/01 07:44:45;;;;;;;7.20;3.80;;;22.30;71.80;;;;;;4958746;29;20666;-73
2021/05/01 07:47:12;;;;;;;10.05;4.38;;;22.10;72.00;;;;;;4958713;28;20208;-73
2021/05/01 07:49:38;;;;;;;6.40;3.40;;;21.60;74.40;;;;;;4958150;28;20259;-76
2021/05/01 07:52:06;;;;;;;5.65;3.83;;;21.00;74.70;;;;;;4958141;29;20204;-80
2021/05/01 07:54:38;;;;;;;5.50;3.63;;;20.90;74.60;;;;;;4958556;29;20223;-79
2021/05/01 07:57:05;;;;;;;5.32;3.72;;;20.90;76.00;;;;;;4958509;29;20350;-81
2021/05/01 07:59:31;;;;;;;6.97;4.35;;;20.60;73.50;;;;;;4958095;28;20240;-77
2021/05/01 08:01:57;;;;;;;9.75;5.10;;;20.60;74.00;;;;;;4958061;29;20667;-72
2021/05/01 08:04:24;;;;;;;8.48;5.28;;;20.80;76.20;;;;;;4958016;29;20212;-81
2021/05/01 08:06:50;;;;;;;6.88;4.70;;;20.30;76.60;;;;;;4958095;29;20208;-81
2021/05/01 08:09:16;;;;;;;6.82;4.68;;;20.20;76.30;;;;;;4958422;28;20236;-79
2021/05/01 08:11:43;;;;;;;6.47;4.97;;;20.50;76.40;;;;;;4957893;29;20725;-81
2021/05/01 08:14:09;;;;;;;7.32;3.80;;;21.10;75.80;;;;;;4960040;29;20595;-83
2021/05/01 08:16:36;;;;;;;6.88;3.38;;;21.20;72.70;;;;;;4957989;29;20223;-82
2021/05/01 08:19:04;;;;;;;5.88;3.60;;;21.30;71.60;;;;;;4958329;28;20231;-77
2021/05/01 08:21:30;;;;;;;6.30;4.10;;;20.80;73.30;;;;;;4957806;29;20651;-82
2021/05/01 08:23:56;;;;;;;6.73;3.97;;;19.00;77.20;;;;;;4957945;29;20231;-84
2021/05/01 08:26:22;;;;;;;5.13;3.67;;;18.70;75.60;;;;;;4957781;29;20212;-74
2021/05/01 08:28:50;;;;;;;8.30;3.60;;;18.70;77.70;;;;;;4957643;28;20815;-76
2021/05/01 08:31:16;;;;;;;5.10;3.50;;;18.90;78.40;;;;;;4957776;29;20330;-79
2021/05/01 08:33:42;;;;;;;5.57;3.30;;;19.40;74.40;;;;;;4957236;28;20231;-72
2021/05/01 08:36:09;;;;;;;6.03;3.60;;;19.20;76.20;;;;;;4957740;29;20611;-82
2021/05/01 08:38:36;;;;;;;7.77;4.37;;;18.20;78.70;;;;;;4957339;28;20236;-73
2021/05/01 08:41:04;;;;;;;8.67;4.27;;;17.20;81.10;;;;;;4957897;29;20326;-82
2021/05/01 08:43:31;;;;;;;5.03;3.27;;;17.70;81.00;;;;;;4957590;28;20678;-77
2021/05/01 08:45:59;;;;;;;5.83;3.50;;;18.70;77.60;;;;;;4957575;29;20634;-73
2021/05/01 08:48:26;;;;;;;6.00;3.37;;;19.90;75.40;;;;;;4957043;28;20263;-72
2021/05/01 08:50:58;;;;;;;6.60;3.20;;;20.00;73.20;;;;;;4957526;29;20306;-74
2021/05/01 08:53:24;;;;;;;4.93;3.00;;;19.10;74.60;;;;;;4957579;29;20204;-72
2021/05/01 08:55:51;;;;;;;5.57;3.20;;;18.70;75.80;;;;;;4957436;29;20259;-80
2021/05/01 08:58:17;;;;;;;4.87;3.43;;;18.60;76.20;;;;;;4957283;28;20263;-75
2021/05/01 09:00:45;;;;;;;6.20;3.37;;;18.20;75.80;;;;;;4957087;29;20247;-76
2021/05/01 09:03:13;;;;;;;4.10;3.13;;;18.50;76.70;;;;;;4957218;29;20215;-72
2021/05/01 09:05:41;;;;;;;3.43;2.40;;;18.90;76.30;;;;;;4954824;28;20678;-78
2021/05/01 09:08:09;;;;;;;9.33;3.47;;;18.70;74.80;;;;;;4957555;28;20208;-79
2021/05/01 09:10:43;;;;;;;6.67;3.30;;;18.40;75.50;;;;;;4956422;28;20275;-78
2021/05/01 09:13:13;;;;;;;4.87;3.17;;;18.00;76.10;;;;;;4956608;28;20208;-75
2021/05/01 09:15:41;;;;;;;7.37;3.23;;;17.50;78.50;;;;;;4956301;28;20212;-74
2021/05/01 09:18:08;;;;;;;4.87;3.53;;;17.00;80.00;;;;;;4956081;29;20663;-72
2021/05/01 09:20:35;;;;;;;5.03;3.30;;;16.70;79.60;;;;;;4956310;29;20247;-71
2021/05/01 09:23:03;;;;;;;5.30;3.27;;;16.40;80.40;;;;;;4956464;29;20212;-72
2021/05/01 09:25:32;;;;;;;4.90;3.00;;;16.40;78.70;;;;;;4955931;29;20207;-74
2021/05/01 09:28:03;;;;;;;3.90;3.17;;;16.90;80.70;;;;;;4955917;29;20687;-72
2021/05/01 09:30:32;;;;;;;4.37;3.37;;;17.80;77.70;;;;;;4955954;29;20212;-71
2021/05/01 09:33:19;;;;;;;4.43;3.40;;;17.80;74.70;;;;;;4956090;29;20212;-71
2021/05/01 09:35:49;;;;;;;8.33;3.50;;;17.10;77.80;;;;;;4952291;28;20209;-72
2021/05/01 09:38:16;;;;;;;6.67;3.80;;;16.70;76.80;;;;;;4955530;28;20738;-71
2021/05/01 09:40:47;;;;;;;6.03;3.10;;;16.80;77.40;;;;;;4955508;28;20246;-71
2021/05/01 09:43:13;;;;;;;6.23;3.40;;;17.10;77.90;;;;;;4955654;28;20566;-75
2021/05/01 09:45:39;;;;;;;6.40;3.33;;;17.10;77.50;;;;;;4955103;28;20219;-74
2021/05/01 09:48:17;;;;;;;5.40;3.27;;;16.50;79.80;;;;;;4955540;28;20208;-71
2021/05/01 09:50:45;;;;;;;4.50;3.47;;;16.40;80.10;;;;;;4955754;28;20204;-72
2021/05/01 09:53:14;;;;;;;5.63;3.47;;;16.20;79.50;;;;;;4953900;28;20212;-71
2021/05/01 09:55:45;;;;;;;7.00;4.10;;;15.90;79.30;;;;;;4955602;28;20675;-71
2021/05/01 09:58:16;;;;;;;7.03;3.73;;;15.70;79.50;;;;;;4955984;28;20267;-71
2021/05/01 10:00:43;;;;;;;5.33;3.47;;;15.50;79.00;;;;;;4955587;28;20232;-71
2021/05/01 10:03:26;;;;;;;7.33;3.83;;;15.60;82.40;;;;;;4955622;28;20220;-71
2021/05/01 10:05:56;;;;;;;6.37;3.60;;;15.80;81.40;;;;;;4955386;28;20204;-71
2021/05/01 10:08:29;;;;;;;6.37;3.83;;;15.70;81.30;;;;;;4955489;28;20715;-72
2021/05/01 10:10:56;;;;;;;7.83;3.43;;;15.90;81.40;;;;;;4955755;28;20212;-71
2021/05/01 10:13:23;;;;;;;6.77;3.83;;;15.90;79.80;;;;;;4956222;28;20212;-72
2021/05/01 10:15:50;;;;;;;5.77;3.97;;;15.90;80.90;;;;;;4957340;28;20235;-73
2021/05/01 10:18:19;;;;;;;6.43;4.13;;;15.80;81.70;;;;;;4958469;28;20208;-72
2021/05/01 10:20:47;;;;;;;5.57;3.73;;;15.80;82.10;;;;;;4957992;28;20330;-72
2021/05/01 10:23:14;;;;;;;4.50;3.47;;;15.90;81.30;;;;;;4959863;28;20208;-73
2021/05/01 10:25:42;;;;;;;7.20;4.33;;;15.80;80.50;;;;;;4961615;28;20212;-75
2021/05/01 10:28:12;;;;;;;5.40;3.80;;;15.50;80.90;;;;;;4964689;28;20290;-78
2021/05/01 10:30:42;;;;;;;6.40;4.20;;;15.40;82.30;;;;;;4959607;28;20208;-80
2021/05/01 10:33:26;;;;;;;6.63;4.63;;;15.00;80.60;;;;;;4956768;28;20211;-80
2021/05/01 10:35:57;;;;;;;6.80;4.10;;;14.60;81.80;;;;;;4955434;28;20208;-78
2021/05/01 10:38:24;;;;;;;6.33;4.50;;;14.30;82.40;;;;;;4954704;28;20633;-79
2021/05/01 10:40:53;;;;;;;7.93;4.20;;;14.10;82.50;;;;;;4954857;28;20243;-80
2021/05/01 10:43:21;;;;;;;5.83;4.13;;;14.00;84.10;;;;;;4955484;28;20208;-80
2021/05/01 10:45:56;;;;;;;6.97;3.77;;;14.10;85.80;;;;;;4955372;28;20212;-78
2021/05/01 10:48:25;;;;;;;7.53;3.97;;;14.20;84.30;;;;;;4954876;28;20227;-76
2021/05/01 10:51:07;;;;;;;5.13;3.60;;;14.20;83.60;;;;;;4955051;28;20207;-72
2021/05/01 10:53:34;;;;;;;5.57;4.07;;;14.40;83.40;;;;;;4953747;28;20219;-76
2021/05/01 10:56:03;;;;;;;6.10;3.60;;;14.50;81.90;;;;;;4954912;28;20212;-76
2021/05/01 10:58:40;;;;;;;5.83;4.07;;;14.60;80.10;;;;;;4955372;28;20227;-75
2021/05/01 11:01:08;;;;;;;5.03;3.97;;;14.90;79.70;;;;;;4954885;28;20235;-72
2021/05/01 11:03:43;;;;;;;7.77;4.53;;;14.90;78.60;;;;;;4954716;28;20216;-73
2021/05/01 11:06:20;;;;;;;6.00;4.07;;;14.90;79.30;;;;;;4954605;28;20218;-75
2021/05/01 11:08:52;;;;;;;4.93;3.63;;;14.70;80.60;;;;;;4954624;28;20318;-74
2021/05/01 11:11:27;;;;;;;7.47;4.50;;;14.30;77.30;;;;;;4954520;28;20709;-72
2021/05/01 11:13:55;;;;;;;5.30;3.13;;;14.20;79.40;;;;;;4954703;28;20215;-78
2021/05/01 11:16:30;;;;;;;6.73;2.90;;;13.90;79.00;;;;;;4954589;28;20215;-74
2021/05/01 11:18:59;;;;;;;7.17;3.53;;;13.80;78.50;;;;;;4954581;28;20232;-73
2021/05/01 11:21:30;;;;;;;4.37;2.87;;;13.90;78.30;;;;;;4954736;28;20235;-74
2021/05/01 11:23:57;;;;;;;4.90;3.13;;;14.10;77.90;;;;;;4954765;28;20212;-76
2021/05/01 11:26:24;;;;;;;8.77;3.13;;;14.20;78.20;;;;;;4955028;28;20204;-74
2021/05/01 11:28:51;;;;;;;3.93;3.03;;;14.30;77.50;;;;;;4954698;28;20288;-78
2021/05/01 11:31:19;;;;;;;4.77;2.90;;;14.40;77.50;;;;;;4954552;28;20607;-78
2021/05/01 11:33:49;;;;;;;3.97;3.03;;;14.60;76.00;;;;;;4954686;28;20208;-78
2021/05/01 11:36:20;;;;;;;7.10;3.13;;;14.70;77.70;;;;;;4954670;28;20215;-73
2021/05/01 11:38:49;;;;;;;6.57;3.10;;;14.70;78.50;;;;;;4954725;28;20238;-81
2021/05/01 11:41:16;;;;;;;4.90;2.40;;;14.70;77.50;;;;;;4954371;28;20239;-79
2021/05/01 11:43:46;;;;;;;5.03;2.90;;;14.60;77.10;;;;;;4954620;28;20216;-79
2021/05/01 11:46:23;;;;;;;4.47;2.60;;;14.70;76.80;;;;;;4954314;28;20212;-72
2021/05/01 11:48:55;;;;;;;4.97;2.53;;;14.90;75.50;;;;;;4954591;28;20228;-79
2021/05/01 11:51:31;;;;;;;4.53;3.10;;;15.40;75.60;;;;;;4954621;28;20208;-78
2021/05/01 11:54:10;;;;;;;3.67;2.50;;;15.70;72.60;;;;;;4954861;28;20211;-76
2021/05/01 11:56:49;;;;;;;3.40;2.60;;;16.00;74.90;;;;;;4954724;28;20215;-78
2021/05/01 11:59:16;;;;;;;3.53;2.37;;;16.00;73.80;;;;;;4954251;28;20247;-77
2021/05/01 12:01:49;;;;;;;6.53;2.80;;;16.00;72.10;;;;;;4954209;28;20236;-77
2021/05/01 12:04:19;;;;;;;4.33;2.70;;;16.00;74.50;;;;;;4954080;28;20662;-76
2021/05/01 12:06:52;;;;;;;3.67;2.80;;;16.10;75.20;;;;;;4954712;28;20208;-78
2021/05/01 12:09:23;;;;;;;3.37;2.33;;;16.10;71.90;;;;;;4955932;28;20228;-79
2021/05/01 12:11:50;;;;;;;4.20;2.83;;;15.90;71.50;;;;;;4958342;28;20212;-72
2021/05/01 12:14:19;;;;;;;8.60;4.40;;;15.80;72.70;;;;;;4957966;28;20212;-71
2021/05/01 12:16:46;;;;;;;5.50;3.87;;;15.40;80.70;;;;;;4957717;28;20208;-75
2021/05/01 12:19:24;;;;;;;6.73;4.27;;;15.00;82.80;;;;;;4957653;28;20284;-79
2021/05/01 12:21:51;;;;;;;6.80;4.40;;;14.80;84.70;;;;;;4957839;28;20251;-79
2021/05/01 12:24:27;;;;;;;5.90;3.77;;;14.50;85.10;;;;;;4957751;28;20216;-81
2021/05/01 12:26:53;;;;;;;7.07;4.50;;;14.10;85.80;;;;;;4957679;28;20354;-77
2021/05/01 12:29:31;;;;;;;9.47;4.43;;;13.80;86.90;;;;;;4957690;28;20256;-78
2021/05/01 12:32:03;;;;;;;6.80;4.37;;;13.70;88.00;;;;;;4957919;28;20211;-77
2021/05/01 12:35:00;;;;;;;6.00;4.07;;;13.70;87.80;;;;;;4957763;28;20304;-78
2021/05/01 12:37:28;;;;;;;6.27;4.00;;;13.90;86.20;;;;;;4949251;28;20204;-78
2021/05/01 12:40:01;;;;;;;5.00;3.50;;;14.00;84.10;;;;;;4957062;28;20263;-75
2021/05/01 12:42:29;;;;;;;5.17;3.60;;;14.10;83.50;;;;;;4957760;28;20204;-75
2021/05/01 12:44:56;;;;;;;5.80;3.83;;;14.30;82.50;;;;;;4957678;28;20208;-77
2021/05/01 12:47:45;;;;;;;5.43;3.67;;;14.10;81.30;;;;;;4957345;28;20212;-77
2021/05/01 12:50:18;;;;;;;4.70;3.23;;;14.00;81.70;;;;;;4956809;28;20263;-75
2021/05/01 12:52:44;;;;;;;3.90;3.03;;;13.90;82.10;;;;;;4957419;28;20237;-74
2021/05/01 12:55:12;;;;;;;4.17;3.13;;;13.80;80.80;;;;;;4957373;28;20207;-77
2021/05/01 12:57:39;;;;;;;5.67;3.60;;;13.90;82.40;;;;;;4957053;28;20567;-72
2021/05/01 13:00:27;;;;;;;5.23;3.20;;;13.80;82.00;;;;;;4956931;28;20271;-74
2021/05/01 13:03:16;;;;;;;4.43;3.00;;;13.90;82.40;;;;;;4956953;28;20241;-77
2021/05/01 13:05:43;;;;;;;5.10;3.20;;;14.00;83.00;;;;;;4957161;28;20736;-77
2021/05/01 13:08:28;;;;;;;4.17;2.90;;;14.00;82.40;;;;;;4956928;28;20566;-78
2021/05/01 13:10:56;;;;;;;6.27;3.17;;;14.00;81.10;;;;;;4957236;28;20200;-73
2021/05/01 13:13:34;;;;;;;4.73;3.10;;;14.00;80.40;;;;;;4956851;28;20204;-75
2021/05/01 13:16:09;;;;;;;5.30;3.53;;;14.00;81.10;;;;;;4956874;28;20219;-73
2021/05/01 13:19:07;;;;;;;5.53;3.50;;;13.90;80.90;;;;;;4956510;28;20231;-73
2021/05/01 13:21:57;;;;;;;4.87;3.23;;;14.10;83.00;;;;;;4914843;29;20241;-73
2021/05/01 13:24:26;;;;;;;4.53;3.23;;;14.20;81.90;;;;;;4954095;28;20540;-73
2021/05/01 13:26:55;;;;;;;3.67;2.87;;;14.20;81.40;;;;;;4956450;28;20204;-71
2021/05/01 13:29:24;;;;;;;5.00;2.67;;;14.50;79.20;;;;;;4956096;28;20589;-77
2021/05/01 13:31:51;;;;;;;3.67;3.07;;;14.70;79.60;;;;;;4956454;28;20262;-73
2021/05/01 13:34:19;;;;;;;5.53;2.60;;;14.80;78.30;;;;;;4956468;28;20574;-72
2021/05/01 13:36:46;;;;;;;3.97;2.67;;;14.70;76.90;;;;;;4956613;28;20204;-76
2021/05/01 13:39:20;;;;;;;4.00;2.60;;;14.60;78.10;;;;;;4956314;28;20239;-76
2021/05/01 13:42:06;;;;;;;4.40;2.23;;;14.60;77.40;;;;;;4956279;28;20588;-75
2021/05/01 13:44:44;;;;;;;4.03;2.40;;;14.70;77.10;;;;;;4956778;28;20684;-76
2021/05/01 13:47:22;;;;;;;3.47;2.60;;;14.70;77.70;;;;;;4957434;28;20211;-74
2021/05/01 13:49:49;;;;;;;3.70;2.53;;;14.60;78.60;;;;;;4955921;28;20234;-78
2021/05/01 13:52:27;;;;;;;6.00;3.03;;;14.60;78.80;;;;;;4955975;28;20548;-79
2021/05/01 13:54:53;;;;;;;3.90;2.90;;;14.70;80.00;;;;;;4956199;28;20214;-75
2021/05/01 13:57:27;;;;;;;4.77;3.10;;;14.60;81.30;;;;;;4956019;28;20272;-78
2021/05/01 13:59:59;;;;;;;3.93;2.80;;;14.60;81.50;;;;;;4955786;28;20263;-76
2021/05/01 14:02:35;;;;;;;4.70;2.70;;;14.50;82.30;;;;;;4955932;28;20228;-73
2021/05/01 14:05:03;;;;;;;4.27;3.40;;;14.70;81.10;;;;;;4955693;28;20216;-78
2021/05/01 14:07:30;;;;;;;6.13;3.73;;;14.80;79.80;;;;;;4956045;28;20215;-74
2021/05/01 14:09:56;;;;;;;4.20;3.13;;;14.80;80.90;;;;;;4955657;28;20231;-76
2021/05/01 14:12:28;;;;;;;4.27;3.00;;;14.90;81.50;;;;;;4955546;28;20214;-74
2021/05/01 14:14:55;;;;;;;5.97;3.53;;;15.00;80.90;;;;;;4955759;28;20208;-73
2021/05/01 14:17:25;;;;;;;4.20;2.83;;;15.10;81.20;;;;;;4955322;28;20212;-74
2021/05/01 14:19:54;;;;;;;4.47;3.10;;;15.20;81.20;;;;;;4954845;28;20323;-74
2021/05/01 14:22:21;;;;;;;5.13;3.37;;;15.30;81.20;;;;;;4955457;28;20215;-72
2021/05/01 14:24:48;;;;;;;4.03;2.90;;;15.30;82.20;;;;;;4955624;28;20218;-74
2021/05/01 14:27:14;;;;;;;3.70;2.80;;;15.30;81.80;;;;;;4955591;28;20693;-74
2021/05/01 14:29:54;;;;;;;4.03;3.20;;;15.30;80.80;;;;;;4955358;28;20326;-73
2021/05/01 14:32:20;;;;;;;6.37;3.10;;;15.30;80.60;;;;;;4954864;28;20215;-76
2021/05/01 14:34:58;;;;;;;5.57;2.90;;;15.50;79.00;;;;;;4955314;28;20235;-73
2021/05/01 14:37:26;;;;;;;3.67;2.70;;;15.70;80.60;;;;;;4955471;28;20666;-80
2021/05/01 14:39:54;;;;;;;2.87;2.30;;;15.60;77.10;;;;;;4955172;28;20228;-81
2021/05/01 14:42:21;;;;;;;4.63;2.87;;;15.50;75.40;;;;;;4954953;28;20212;-77
2021/05/01 14:44:49;;;;;;;4.27;2.20;;;15.60;76.70;;;;;;4955139;28;20611;-80
2021/05/01 14:47:25;;;;;;;4.13;2.50;;;15.80;74.20;;;;;;4956815;28;20243;-79
2021/05/01 14:49:51;;;;;;;2.90;2.40;;;15.90;75.60;;;;;;4958194;28;20259;-80
2021/05/01 14:52:29;;;;;;;3.47;2.20;;;15.90;75.10;;;;;;4954897;28;20207;-79
2021/05/01 14:54:57;;;;;;;2.80;2.10;;;15.90;76.30;;;;;;4954769;28;20666;-80
2021/05/01 14:57:29;;;;;;;3.53;2.50;;;16.10;75.90;;;;;;4954857;28;20199;-80
2021/05/01 14:59:58;;;;;;;3.03;2.30;;;16.20;74.70;;;;;;4955145;28;20232;-79
2021/05/01 15:02:29;;;;;;;3.80;2.90;;;16.20;75.20;;;;;;4955389;28;20212;-80
2021/05/01 15:04:58;;;;;;;3.90;2.73;;;16.20;73.30;;;;;;4951032;28;20212;-71
2021/05/01 15:07:28;;;;;;;3.77;2.47;;;16.30;73.80;;;;;;4954528;28;20240;-77
2021/05/01 15:09:55;;;;;;;3.23;2.50;;;16.20;72.30;;;;;;4951190;28;20793;-83
2021/05/01 15:12:21;;;;;;;5.00;2.50;;;16.00;74.20;;;;;;4955166;28;20223;-75
2021/05/01 15:14:59;;;;;;;3.10;2.60;;;15.90;74.90;;;;;;4953656;28;20218;-80
2021/05/01 15:17:48;;;;;;;3.53;2.60;;;15.80;75.20;;;;;;4953913;29;20211;-73
2021/05/01 15:20:27;;;;;;;4.17;2.60;;;15.60;75.20;;;;;;4953179;28;20709;-76
2021/05/01 15:22:56;;;;;;;4.27;2.37;;;15.20;74.90;;;;;;4953867;28;20216;-71
2021/05/01 15:25:24;;;;;;;3.77;2.63;;;15.00;76.00;;;;;;4953411;29;20239;-71
2021/05/01 15:27:51;;;;;;;3.47;2.70;;;15.00;75.60;;;;;;4953275;29;20662;-76
2021/05/01 15:30:23;;;;;;;4.83;3.23;;;15.00;77.50;;;;;;4953886;28;20283;-73
2021/05/01 15:32:51;;;;;;;3.27;2.50;;;15.00;77.20;;;;;;4954514;28;20215;-73
2021/05/01 15:35:18;;;;;;;2.93;2.43;;;14.90;75.40;;;;;;4954906;28;20541;-74
2021/05/01 15:37:44;;;;;;;3.13;2.60;;;14.80;75.30;;;;;;4954851;28;20208;-74
2021/05/01 15:40:13;;;;;;;3.13;2.60;;;14.70;77.30;;;;;;4955085;28;20259;-75
2021/05/01 15:42:40;;;;;;;4.77;2.73;;;14.70;77.50;;;;;;4955149;28;20204;-74
2021/05/01 15:45:09;;;;;;;3.90;2.73;;;14.70;78.00;;;;;;4958150;28;20204;-75
2021/05/01 15:47:35;;;;;;;6.63;3.20;;;14.80;78.70;;;;;;4958996;28;20258;-74
2021/05/01 15:50:02;;;;;;;3.57;2.90;;;14.80;79.10;;;;;;4958806;28;20232;-74
2021/05/01 15:52:28;;;;;;;4.03;2.70;;;14.70;78.30;;;;;;4958692;28;20214;-73
2021/05/01 15:54:54;;;;;;;3.73;2.80;;;14.50;78.70;;;;;;4958461;28;20207;-75
2021/05/01 15:57:27;;;;;;;3.37;2.53;;;14.40;78.80;;;;;;4958570;28;20295;-74
2021/05/01 15:59:53;;;;;;;5.00;3.00;;;14.30;79.20;;;;;;4958443;28;20331;-73
2021/05/01 16:02:20;;;;;;;3.53;2.60;;;14.10;79.10;;;;;;4958542;28;20247;-74
2021/05/01 16:04:47;;;;;;;5.63;3.03;;;14.10;79.70;;;;;;4959075;28;20766;-73
2021/05/01 16:07:14;;;;;;;3.73;2.60;;;14.20;79.90;;;;;;4959944;28;20216;-74
2021/05/01 16:09:41;;;;;;;4.37;2.80;;;14.30;80.30;;;;;;4959949;28;20333;-74
2021/05/01 16:12:09;;;;;;;3.07;2.50;;;14.40;79.90;;;;;;4958464;28;20211;-75
2021/05/01 16:14:36;;;;;;;4.87;3.10;;;14.30;78.60;;;;;;4958291;28;20263;-76
2021/05/01 16:17:03;;;;;;;4.63;2.40;;;14.40;78.90;;;;;;4958343;28;20212;-75
2021/05/01 16:19:29;;;;;;;4.13;2.70;;;14.40;79.70;;;;;;4958148;28;20283;-74
2021/05/01 16:21:56;;;;;;;2.83;2.30;;;14.30;78.20;;;;;;4958068;28;20240;-74
2021/05/01 16:24:23;;;;;;;4.50;2.67;;;14.20;78.90;;;;;;4958025;28;20212;-74
2021/05/01 16:26:49;;;;;;;3.23;2.60;;;14.10;79.20;;;;;;4957951;28;20212;-73
2021/05/01 16:29:16;;;;;;;3.30;2.40;;;14.00;80.10;;;;;;4958400;28;20232;-74
2021/05/01 16:31:44;;;;;;;4.23;2.67;;;13.90;79.80;;;;;;4957706;28;20215;-74
2021/05/01 16:34:10;;;;;;;4.00;2.67;;;13.70;80.60;;;;;;4957745;28;20204;-74
2021/05/01 16:36:37;;;;;;;3.13;2.27;;;13.60;79.90;;;;;;4957701;28;20212;-74
2021/05/01 16:39:05;;;;;;;2.63;2.20;;;13.60;79.90;;;;;;4957302;28;20228;-74
2021/05/01 16:41:31;;;;;;;2.87;2.40;;;13.50;80.40;;;;;;4957240;28;20239;-73
2021/05/01 16:43:58;;;;;;;3.20;2.23;;;13.40;80.70;;;;;;4957683;28;20223;-74
2021/05/01 16:46:24;;;;;;;2.90;2.00;;;13.30;81.20;;;;;;4957452;28;20212;-74
2021/05/01 16:48:51;;;;;;;3.33;2.20;;;13.30;81.00;;;;;;4957283;28;20223;-75
2021/05/01 16:51:17;;;;;;;2.83;2.23;;;13.30;82.20;;;;;;4957648;28;20211;-74
2021/05/01 16:53:44;;;;;;;4.57;2.20;;;13.40;80.20;;;;;;4957290;28;20208;-75
2021/05/01 16:56:10;;;;;;;5.63;2.30;;;13.50;80.20;;;;;;4957696;28;20204;-75
2021/05/01 16:58:36;;;;;;;7.07;2.20;;;13.60;81.20;;;;;;4958001;28;20228;-74
2021/05/01 17:01:04;;;;;;;2.13;1.83;;;13.60;79.90;;;;;;4957428;28;20699;-75
2021/05/01 17:03:31;;;;;;;3.20;2.20;;;13.60;80.30;;;;;;4957085;28;20219;-74
2021/05/01 17:05:58;;;;;;;2.80;2.00;;;13.50;79.40;;;;;;4957308;28;20208;-75
2021/05/01 17:08:24;;;;;;;5.63;2.00;;;13.40;80.20;;;;;;4957110;28;20231;-74
2021/05/01 17:10:51;;;;;;;5.20;2.10;;;13.40;81.20;;;;;;4957000;28;20263;-75
2021/05/01 17:13:17;;;;;;;3.57;1.80;;;13.40;80.40;;;;;;4957068;28;20208;-75
2021/05/01 17:15:44;;;;;;;3.20;2.10;;;13.40;80.60;;;;;;4957008;28;20212;-74
2021/05/01 17:18:10;;;;;;;4.23;1.87;;;13.40;81.00;;;;;;4956627;28;20219;-73
2021/05/01 17:20:38;;;;;;;2.90;1.93;;;13.40;80.70;;;;;;4956931;28;20318;-71
2021/05/01 17:23:06;;;;;;;2.67;1.60;;;13.30;81.10;;;;;;4956691;28;20212;-73
2021/05/01 17:25:33;;;;;;;14.30;1.80;;;13.40;81.60;;;;;;4956569;28;20607;-72
2021/05/01 17:27:59;;;;;;;2.23;1.50;;;13.20;80.90;;;;;;4956691;28;20663;-72
2021/05/01 17:30:26;;;;;;;4.60;1.90;;;13.10;80.10;;;;;;4956782;28;20228;-73
2021/05/01 17:32:53;;;;;;;2.53;1.57;;;12.80;80.50;;;;;;4956784;28;20222;-72
2021/05/01 17:35:21;;;;;;;4.63;1.90;;;12.80;81.40;;;;;;4956704;28;20212;-72
2021/05/01 17:37:47;;;;;;;5.57;1.90;;;12.80;82.40;;;;;;4956773;28;20219;-73
2021/05/01 17:40:15;;;;;;;2.43;1.67;;;12.70;81.00;;;;;;4956533;28;20228;-74
2021/05/01 17:42:42;;;;;;;4.20;1.50;;;12.70;81.80;;;;;;4956786;28;20214;-75
2021/05/01 17:45:14;;;;;;;3.70;1.90;;;12.60;83.50;;;;;;4956505;28;20275;-73
2021/05/01 17:47:41;;;;;;;6.10;2.10;;;12.50;88.00;;;;;;4956134;28;20212;-74
2021/05/01 17:50:08;;;;;;;3.53;2.13;;;12.50;89.30;;;;;;4955880;28;20332;-72
2021/05/01 17:52:34;;;;;;;3.23;1.77;;;12.50;90.00;;;;;;4956190;28;20219;-73
2021/05/01 17:55:01;;;;;;;3.33;1.63;;;12.40;90.00;;;;;;4956432;28;20223;-73
2021/05/01 17:57:28;;;;;;;4.00;1.60;;;12.40;90.10;;;;;;4956255;28;20208;-73
2021/05/01 17:59:55;;;;;;;2.50;1.43;;;12.30;90.10;;;;;;4955905;28;20699;-72